createdAt,value
2018-06-04T00:02:07.181Z,12.20
2018-06-04T00:04:35.055Z,12.24
2018-06-04T00:07:02.871Z,12.26
2018-06-04T00:09:30.807Z,11.99
2018-06-04T00:11:58.738Z,11.74
2018-06-04T00:14:26.560Z,11.55
2018-06-04T00:16:54.493Z,11.59
2018-06-04T00:19:22.574Z,11.72
2018-06-04T00:21:50.420Z,11.89
2018-06-04T00:24:18.271Z,12.00
2018-06-04T00:26:46.079Z,12.11
2018-06-04T00:29:13.921Z,12.23
2018-06-04T00:31:41.987Z,12.36
2018-06-04T00:34:09.796Z,12.41
2018-06-04T00:36:37.603Z,12.38
2018-06-04T00:39:07.696Z,12.50
2018-06-04T00:41:35.763Z,12.53
2018-06-04T00:44:03.589Z,12.38
2018-06-04T00:46:31.597Z,12.31
2018-06-04T00:48:59.481Z,12.39
2018-06-04T00:51:27.327Z,12.45
2018-06-04T00:53:55.224Z,12.53
2018-06-04T00:56:24.047Z,12.43
2018-06-04T00:58:51.856Z,12.50
2018-06-04T01:01:19.756Z,12.63
2018-06-04T01:03:47.678Z,12.49
2018-06-04T01:06:15.643Z,12.54
2018-06-04T01:08:43.521Z,12.51
2018-06-04T01:11:11.376Z,12.14
2018-06-04T01:13:40.099Z,12.21
2018-06-04T01:16:08.125Z,12.33
2018-06-04T01:18:35.934Z,11.97
2018-06-04T01:21:03.768Z,12.11
2018-06-04T01:23:31.621Z,11.84
2018-06-04T01:25:59.442Z,11.53
2018-06-04T01:28:27.391Z,11.64
2018-06-04T01:30:55.407Z,11.34
2018-06-04T01:33:23.245Z,11.16
2018-06-04T01:35:51.057Z,11.32
2018-06-04T01:38:19.122Z,11.10
2018-06-04T01:40:47.089Z,11.02
2018-06-04T01:43:14.885Z,11.12
2018-06-04T01:45:42.785Z,11.08
2018-06-04T01:48:10.607Z,10.97
2018-06-04T01:50:38.559Z,11.27
2018-06-04T01:53:06.404Z,11.04
2018-06-04T01:55:34.231Z,10.85
2018-06-04T01:58:02.042Z,10.65
2018-06-04T02:00:30.142Z,10.73
2018-06-04T02:02:58.579Z,10.40
2018-06-04T02:05:26.527Z,10.63
2018-06-04T02:07:54.379Z,10.83
2018-06-04T02:10:22.180Z,10.62
2018-06-04T02:12:49.978Z,10.90
2018-06-04T02:15:17.931Z,11.04
2018-06-04T02:17:45.731Z,11.08
2018-06-04T02:20:13.793Z,11.24
2018-06-04T02:22:41.988Z,11.33
2018-06-04T02:25:09.809Z,11.39
2018-06-04T02:27:37.608Z,11.33
2018-06-04T02:30:05.493Z,11.42
2018-06-04T02:32:34.174Z,11.54
2018-06-04T02:35:02.065Z,11.48
2018-06-04T02:37:29.938Z,11.60
2018-06-04T02:39:57.762Z,11.40
2018-06-04T02:42:25.712Z,11.42
2018-06-04T02:44:54.035Z,11.52
2018-06-04T02:47:24.840Z,11.27
2018-06-04T02:49:53.562Z,11.47
2018-06-04T02:52:21.431Z,11.58
2018-06-04T02:54:49.297Z,11.62
2018-06-04T02:57:17.426Z,11.61
2018-06-04T02:59:45.342Z,11.79
2018-06-04T03:02:13.365Z,11.82
2018-06-04T03:04:41.384Z,11.86
2018-06-04T03:07:09.749Z,11.75
2018-06-04T03:09:37.621Z,11.53
2018-06-04T03:12:05.510Z,11.55
2018-06-04T03:14:33.411Z,11.17
2018-06-04T03:17:01.380Z,11.19
2018-06-04T03:19:29.427Z,11.20
2018-06-04T03:21:57.670Z,11.06
2018-06-04T03:24:25.746Z,10.79
2018-06-04T03:26:53.931Z,10.90
2018-06-04T03:29:21.935Z,11.17
2018-06-04T03:31:49.762Z,11.17
2018-06-04T03:34:17.605Z,11.08
2018-06-04T03:36:45.810Z,11.31
2018-06-04T03:39:13.669Z,11.55
2018-06-04T03:41:41.489Z,11.69
2018-06-04T03:44:09.345Z,11.78
2018-06-04T03:46:37.147Z,11.88
2018-06-04T03:49:05.041Z,11.44
2018-06-04T03:51:33.367Z,11.56
2018-06-04T03:54:01.389Z,11.59
2018-06-04T03:56:29.220Z,11.67
2018-06-04T03:58:57.051Z,11.61
2018-06-04T04:01:24.860Z,11.25
2018-06-04T04:03:52.643Z,11.55
2018-06-04T04:06:20.500Z,11.65
2018-06-04T04:08:48.448Z,11.31
2018-06-04T04:11:16.252Z,11.09
2018-06-04T04:13:44.151Z,11.42
2018-06-04T04:16:11.960Z,11.61
2018-06-04T04:18:39.863Z,11.90
2018-06-04T04:21:07.729Z,12.01
2018-06-04T04:23:35.580Z,12.17
2018-06-04T04:26:03.517Z,12.23
2018-06-04T04:28:31.371Z,12.44
2018-06-04T04:30:59.364Z,12.70
2018-06-04T04:33:27.336Z,12.89
2018-06-04T04:35:55.384Z,12.67
2018-06-04T04:38:23.220Z,12.66
2018-06-04T04:40:50.999Z,12.61
2018-06-04T04:43:21.456Z,12.11
2018-06-04T04:45:49.420Z,12.36
2018-06-04T04:48:17.383Z,12.71
2018-06-04T04:50:45.234Z,12.89
2018-06-04T04:53:13.036Z,13.02
2018-06-04T04:55:40.854Z,13.28
2018-06-04T04:58:08.781Z,13.69
2018-06-04T05:00:36.640Z,14.03
2018-06-04T05:03:04.487Z,14.29
2018-06-04T05:05:32.476Z,14.25
2018-06-04T05:08:00.306Z,13.72
2018-06-04T05:10:28.115Z,13.45
2018-06-04T05:12:56.085Z,13.83
2018-06-04T05:15:23.903Z,13.86
2018-06-04T05:17:51.768Z,14.32
2018-06-04T05:20:19.784Z,14.59
2018-06-04T05:22:47.606Z,14.67
2018-06-04T05:25:15.404Z,14.88
2018-06-04T05:27:43.398Z,14.73
2018-06-04T05:30:11.299Z,14.83
2018-06-04T05:32:39.104Z,14.87
2018-06-04T05:35:06.935Z,15.11
2018-06-04T05:37:34.751Z,15.21
2018-06-04T05:40:02.583Z,15.42
2018-06-04T05:42:30.519Z,15.77
2018-06-04T05:44:58.350Z,16.07
2018-06-04T05:47:26.216Z,16.11
2018-06-04T05:49:54.136Z,16.42
2018-06-04T05:52:21.915Z,16.50
2018-06-04T05:54:49.713Z,16.72
2018-06-04T05:57:17.572Z,17.04
2018-06-04T05:59:45.604Z,17.34
2018-06-04T06:02:13.438Z,16.99
2018-06-04T06:04:41.466Z,17.52
2018-06-04T06:07:09.358Z,17.97
2018-06-04T06:09:37.158Z,18.04
2018-06-04T06:12:04.998Z,18.25
2018-06-04T06:14:32.815Z,18.46
2018-06-04T06:17:00.644Z,18.51
2018-06-04T06:19:28.487Z,18.83
2018-06-04T06:21:56.650Z,18.87
2018-06-04T06:24:24.616Z,19.27
2018-06-04T06:26:52.545Z,19.64
2018-06-04T06:29:20.359Z,19.85
2018-06-04T06:31:48.163Z,20.00
2018-06-04T06:34:16.028Z,20.46
2018-06-04T06:36:43.848Z,20.97
2018-06-04T06:39:12.101Z,20.74
2018-06-04T06:41:39.927Z,20.57
2018-06-04T06:44:07.748Z,20.74
2018-06-04T06:46:35.539Z,21.02
2018-06-04T06:49:03.562Z,20.61
2018-06-04T06:51:31.395Z,20.85
2018-06-04T06:53:59.341Z,20.35
2018-06-04T06:56:27.343Z,20.93
2018-06-04T06:58:55.148Z,21.23
2018-06-04T07:01:23.140Z,21.40
2018-06-04T07:03:51.004Z,21.32
2018-06-04T07:06:23.980Z,21.47
2018-06-04T07:08:51.773Z,21.52
2018-06-04T07:11:19.679Z,21.96
2018-06-04T07:13:47.511Z,22.26
2018-06-04T07:16:15.286Z,22.50
2018-06-04T07:18:43.179Z,22.94
2018-06-04T07:21:11.104Z,22.98
2018-06-04T07:23:39.007Z,23.13
2018-06-04T07:26:06.856Z,23.26
2018-06-04T07:28:35.042Z,23.17
2018-06-04T07:31:02.833Z,23.23
2018-06-04T07:33:36.880Z,22.90
2018-06-04T07:43:08.470Z,22.88
2018-06-04T07:45:36.279Z,23.10
2018-06-04T07:48:04.221Z,23.31
2018-06-04T07:50:32.248Z,23.31
2018-06-04T07:53:00.110Z,23.14
2018-06-04T07:55:27.903Z,23.25
2018-06-04T07:57:55.766Z,23.16
2018-06-04T08:00:23.583Z,23.10
2018-06-04T08:02:51.541Z,23.26
2018-06-04T08:05:19.541Z,23.46
2018-06-04T08:07:47.357Z,23.40
2018-06-04T08:10:15.206Z,23.60
2018-06-04T08:12:43.114Z,24.14
2018-06-04T08:15:10.944Z,23.99
2018-06-04T08:17:38.758Z,24.08
2018-06-04T08:20:06.800Z,24.09
2018-06-04T08:22:34.635Z,24.25
2018-06-04T08:25:03.063Z,24.24
2018-06-04T08:27:30.928Z,24.25
2018-06-04T08:29:58.760Z,24.42
2018-06-04T08:32:26.559Z,24.67
2018-06-04T08:34:54.484Z,24.93
2018-06-04T08:37:22.317Z,25.17
2018-06-04T08:39:50.286Z,25.17
2018-06-04T08:42:18.137Z,25.24
2018-06-04T08:44:45.957Z,25.45
2018-06-04T08:47:13.809Z,25.55
2018-06-04T08:49:41.662Z,25.65
2018-06-04T08:52:09.625Z,25.74
2018-06-04T08:54:37.415Z,25.97
2018-06-04T08:57:08.504Z,26.38
2018-06-04T08:59:36.439Z,26.28
2018-06-04T09:02:04.368Z,26.45
2018-06-04T09:04:32.253Z,26.25
2018-06-04T09:07:00.077Z,25.73
2018-06-04T09:09:28.078Z,26.24
2018-06-04T09:11:56.045Z,26.55
2018-06-04T09:14:23.907Z,26.79
2018-06-04T09:16:51.711Z,26.40
2018-06-04T09:19:19.604Z,26.67
2018-06-04T09:21:47.415Z,26.92
2018-06-04T09:24:15.243Z,26.66
2018-06-04T09:26:44.932Z,26.45
2018-06-04T09:29:12.872Z,26.17
2018-06-04T09:31:40.679Z,26.37
2018-06-04T09:34:08.511Z,26.22
2018-06-04T09:36:36.386Z,26.58
2018-06-04T09:39:06.754Z,27.03
2018-06-04T09:41:34.714Z,26.67
2018-06-04T09:44:02.565Z,26.17
2018-06-04T09:46:30.391Z,26.25
2018-06-04T09:48:58.235Z,26.42
2018-06-04T09:51:26.030Z,26.42
2018-06-04T09:53:53.914Z,26.11
2018-06-04T09:56:21.722Z,26.53
2018-06-04T09:58:49.539Z,26.37
2018-06-04T10:01:17.350Z,26.64
2018-06-04T10:03:45.249Z,26.82
2018-06-04T10:06:13.048Z,26.82
2018-06-04T10:08:41.413Z,26.60
2018-06-04T10:11:09.413Z,26.88
2018-06-04T10:13:37.215Z,26.53
2018-06-04T10:16:05.074Z,26.40
2018-06-04T10:18:32.932Z,26.14
2018-06-04T10:21:00.724Z,26.50
2018-06-04T10:23:28.557Z,26.42
2018-06-04T10:25:56.608Z,26.73
2018-06-04T10:28:25.560Z,26.96
2018-06-04T10:30:53.532Z,26.27
2018-06-04T10:33:21.516Z,26.44
2018-06-04T10:35:49.315Z,26.96
2018-06-04T10:38:17.137Z,27.10
2018-06-04T10:40:45.199Z,26.94
2018-06-04T10:43:13.047Z,26.92
2018-06-04T10:45:40.874Z,26.89
2018-06-04T10:48:08.806Z,26.91
2018-06-04T10:50:36.671Z,27.21
2018-06-04T10:53:04.516Z,27.47
2018-06-04T10:55:32.415Z,27.37
2018-06-04T10:58:00.315Z,27.54
2018-06-04T11:00:28.136Z,28.07
2018-06-04T11:02:55.981Z,28.15
2018-06-04T11:05:23.811Z,27.37
2018-06-04T11:07:51.628Z,27.42
2018-06-04T11:10:19.716Z,27.64
2018-06-04T11:12:47.534Z,28.19
2018-06-04T11:15:15.372Z,27.91
2018-06-04T11:17:43.247Z,27.51
2018-06-04T11:20:11.059Z,27.97
2018-06-04T11:22:38.899Z,27.96
2018-06-04T11:25:06.801Z,28.24
2018-06-04T11:27:34.623Z,28.57
2018-06-04T11:30:02.634Z,28.45
2018-06-04T11:32:30.581Z,28.45
2018-06-04T11:34:58.530Z,28.06
2018-06-04T11:37:26.353Z,27.69
2018-06-04T11:39:54.236Z,28.01
2018-06-04T11:42:22.201Z,27.68
2018-06-04T11:44:50.015Z,28.17
2018-06-04T11:47:17.885Z,27.63
2018-06-04T11:49:45.697Z,27.56
2018-06-04T11:52:13.527Z,27.99
2018-06-04T11:54:41.441Z,28.08
2018-06-04T11:57:09.264Z,27.89
2018-06-04T11:59:37.092Z,27.59
2018-06-04T12:02:04.944Z,27.86
2018-06-04T12:04:32.765Z,27.30
2018-06-04T12:07:00.699Z,27.64
2018-06-04T12:09:28.676Z,27.69
2018-06-04T12:11:56.489Z,27.99
2018-06-04T12:14:24.291Z,27.70
2018-06-04T12:16:52.219Z,27.92
2018-06-04T12:19:20.073Z,27.99
2018-06-04T12:21:47.991Z,27.96
2018-06-04T12:24:15.839Z,28.23
2018-06-04T12:26:43.634Z,28.32
2018-06-04T12:29:11.443Z,27.89
2018-06-04T12:31:39.421Z,27.89
2018-06-04T12:34:07.230Z,28.07
2018-06-04T12:36:35.173Z,28.51
2018-06-04T12:39:03.780Z,28.15
2018-06-04T12:41:31.600Z,28.33
2018-06-04T12:43:59.442Z,28.02
2018-06-04T12:46:27.287Z,27.39
2018-06-04T12:48:55.087Z,27.84
2018-06-04T12:51:22.907Z,27.80
2018-06-04T12:53:50.768Z,28.34
2018-06-04T12:56:18.589Z,28.84
2018-06-04T12:58:46.391Z,29.22
2018-06-04T13:01:14.282Z,28.76
2018-06-04T13:03:42.077Z,27.99
2018-06-04T13:06:09.923Z,28.60
2018-06-04T13:08:37.796Z,27.92
2018-06-04T13:11:05.645Z,28.16
2018-06-04T13:13:33.476Z,28.25
2018-06-04T13:16:01.353Z,28.40
2018-06-04T13:18:29.166Z,27.87
2018-06-04T13:20:56.983Z,27.80
2018-06-04T13:23:24.882Z,27.34
2018-06-04T13:25:52.696Z,27.08
2018-06-04T13:28:20.509Z,26.78
2018-06-04T13:30:48.451Z,26.69
2018-06-04T13:33:16.844Z,27.16
2018-06-04T13:35:44.649Z,27.03
2018-06-04T13:38:12.488Z,26.88
2018-06-04T13:40:40.323Z,26.48
2018-06-04T13:43:08.271Z,26.18
2018-06-04T13:45:36.288Z,25.77
2018-06-04T13:48:04.129Z,25.88
2018-06-04T13:50:31.963Z,25.83
2018-06-04T13:52:59.868Z,25.88
2018-06-04T13:55:27.648Z,26.13
2018-06-04T13:57:55.470Z,26.31
2018-06-04T14:00:23.333Z,26.09
2018-06-04T14:02:51.166Z,25.76
2018-06-04T14:05:18.968Z,25.78
2018-06-04T14:07:46.890Z,25.39
2018-06-04T14:10:14.706Z,25.35
2018-06-04T14:12:42.663Z,25.31
2018-06-04T14:15:10.526Z,25.46
2018-06-04T14:17:38.348Z,25.47
2018-06-04T14:20:06.188Z,25.37
2018-06-04T14:22:34.036Z,25.25
2018-06-04T14:25:01.869Z,25.07
2018-06-04T14:27:29.697Z,25.04
2018-06-04T14:29:57.610Z,25.05
2018-06-04T14:32:25.407Z,24.95
2018-06-04T14:34:53.481Z,24.68
2018-06-04T14:37:21.603Z,24.79
2018-06-04T14:39:49.400Z,24.83
2018-06-04T14:42:17.332Z,24.70
2018-06-04T14:44:45.222Z,24.62
2018-06-04T14:47:13.160Z,24.40
2018-06-04T14:49:40.994Z,24.23
2018-06-04T14:52:09.038Z,24.15
2018-06-04T14:54:36.847Z,24.27
2018-06-04T14:57:04.915Z,24.32
2018-06-04T14:59:32.803Z,24.05
2018-06-04T15:02:00.648Z,23.94
2018-06-04T15:04:28.443Z,23.98
2018-06-04T15:06:56.315Z,23.95
2018-06-04T15:09:24.132Z,24.12
2018-06-04T15:11:52.104Z,24.18
2018-06-04T15:14:20.288Z,24.26
2018-06-04T15:16:48.102Z,24.17
2018-06-04T15:19:15.911Z,24.19
2018-06-04T15:21:43.779Z,24.14
2018-06-04T15:24:11.589Z,24.01
2018-06-04T15:26:39.414Z,23.95
2018-06-04T15:29:07.265Z,23.88
2018-06-04T15:31:35.164Z,23.82
2018-06-04T15:34:02.998Z,23.71
2018-06-04T15:39:24.467Z,23.79
2018-06-04T15:41:52.443Z,23.88
2018-06-04T15:44:20.254Z,23.83
2018-06-04T15:46:48.159Z,23.99
2018-06-04T15:49:15.978Z,24.01
2018-06-04T15:51:43.801Z,23.96
2018-06-04T15:54:11.705Z,23.88
2018-06-04T15:56:39.527Z,23.90
2018-06-04T15:59:07.346Z,23.92
2018-06-04T16:01:35.247Z,23.79
2018-06-04T16:04:03.081Z,23.70
2018-06-04T16:06:30.940Z,23.83
2018-06-04T16:08:58.828Z,23.97
2018-06-04T16:11:26.777Z,23.82
2018-06-04T16:13:54.592Z,23.95
2018-06-04T16:16:22.446Z,24.10
2018-06-04T16:18:50.268Z,24.19
2018-06-04T16:21:18.088Z,24.19
2018-06-04T16:23:46.299Z,24.36
2018-06-04T16:26:14.134Z,24.27
2018-06-04T16:28:41.952Z,24.18
2018-06-04T16:31:09.819Z,24.08
2018-06-04T16:33:37.752Z,24.12
2018-06-04T16:36:05.665Z,24.03
2018-06-04T16:38:33.815Z,24.07
2018-06-04T16:41:01.636Z,24.10
2018-06-04T16:43:29.502Z,24.01
2018-06-04T16:45:57.435Z,23.89
2018-06-04T16:48:25.264Z,23.83
2018-06-04T16:50:53.086Z,23.63
2018-06-04T16:53:20.977Z,23.63
2018-06-04T16:55:48.753Z,23.42
2018-06-04T16:58:16.572Z,23.25
2018-06-04T17:00:44.471Z,23.09
2018-06-04T17:03:12.293Z,22.99
2018-06-04T17:05:40.103Z,22.92
2018-06-04T17:08:08.062Z,22.60
2018-06-04T17:10:35.874Z,22.52
2018-06-04T17:13:03.847Z,22.59
2018-06-04T17:15:31.706Z,22.51
2018-06-04T17:17:59.523Z,22.38
2018-06-04T17:20:27.392Z,22.18
2018-06-04T17:22:55.313Z,22.08
2018-06-04T17:25:23.174Z,22.14
2018-06-04T17:27:51.009Z,22.03
2018-06-04T17:30:19.036Z,21.96
2018-06-04T17:32:46.844Z,21.84
2018-06-04T17:35:29.652Z,21.85
2018-06-04T17:37:57.501Z,21.83
2018-06-04T17:40:25.500Z,21.72
2018-06-04T17:42:53.355Z,21.70
2018-06-04T17:45:21.175Z,21.59
2018-06-04T17:47:54.072Z,21.45
2018-06-04T17:50:22.255Z,21.32
2018-06-04T17:52:50.423Z,21.05
2018-06-04T17:55:18.628Z,21.01
2018-06-04T17:57:46.818Z,20.96
2018-06-04T18:00:15.258Z,21.03
2018-06-04T18:02:43.666Z,21.19
2018-06-04T18:05:14.080Z,21.18
2018-06-04T18:07:45.055Z,21.28
2018-06-04T18:10:13.423Z,21.22
2018-06-04T18:12:46.870Z,21.13
2018-06-04T18:15:15.346Z,20.94
2018-06-04T18:17:45.654Z,20.80
2018-06-04T18:20:13.567Z,20.72
2018-06-04T18:22:41.699Z,20.65
2018-06-04T18:25:09.817Z,20.64
2018-06-04T18:27:37.653Z,20.50
2018-06-04T18:30:05.544Z,20.50
2018-06-04T18:32:34.723Z,20.40
2018-06-04T18:35:03.166Z,20.36
2018-06-04T18:37:31.162Z,20.25
2018-06-04T18:39:59.195Z,20.22
2018-06-04T18:42:28.267Z,20.19
2018-06-04T18:44:57.128Z,20.08
2018-06-04T18:47:25.137Z,20.09
2018-06-04T18:49:54.278Z,19.98
2018-06-04T18:52:22.260Z,19.99
2018-06-04T18:54:50.696Z,19.95
2018-06-04T18:57:18.874Z,19.91
2018-06-04T18:59:47.044Z,19.87
2018-06-04T19:02:15.037Z,19.74
2018-06-04T19:04:43.038Z,19.69
2018-06-04T19:07:10.908Z,19.68
2018-06-04T19:09:38.797Z,19.57
2018-06-04T19:12:06.767Z,19.56
2018-06-04T19:14:34.796Z,19.49
2018-06-04T19:17:02.754Z,19.32
2018-06-04T19:19:30.828Z,19.32
2018-06-04T19:21:58.857Z,19.24
2018-06-04T19:24:26.983Z,19.22
2018-06-04T19:26:55.568Z,19.09
2018-06-04T19:29:23.553Z,19.08
2018-06-04T19:31:52.173Z,19.02
2018-06-04T19:34:20.235Z,18.98
2018-06-04T19:36:48.295Z,18.86
2018-06-04T19:39:16.399Z,18.79
2018-06-04T19:41:44.471Z,18.69
2018-06-04T19:44:12.543Z,18.72
2018-06-04T19:46:40.382Z,18.69
2018-06-04T19:49:08.250Z,18.56
2018-06-04T19:51:36.144Z,18.60
2018-06-04T19:54:04.218Z,18.50
2018-06-04T19:56:32.298Z,18.47
2018-06-04T19:59:00.139Z,18.42
2018-06-04T20:01:28.136Z,18.41
2018-06-04T20:03:56.179Z,18.36
2018-06-04T20:06:24.018Z,18.19
2018-06-04T20:08:51.888Z,18.14
2018-06-04T20:11:19.768Z,18.22
2018-06-04T20:13:47.595Z,18.14
2018-06-04T20:16:15.421Z,18.13
2018-06-04T20:18:43.300Z,18.03
2018-06-04T20:21:11.250Z,17.96
2018-06-04T20:23:39.059Z,17.93
2018-06-04T20:26:07.020Z,17.84
2018-06-04T20:28:34.845Z,17.85
2018-06-04T20:31:02.757Z,17.74
2018-06-04T20:33:30.687Z,17.57
2018-06-04T20:35:58.543Z,17.52
2018-06-04T20:38:26.520Z,17.50
2018-06-04T20:40:54.513Z,17.54
2018-06-04T20:43:22.360Z,17.43
2018-06-04T20:45:50.709Z,17.49
2018-06-04T20:48:18.621Z,17.43
2018-06-04T20:50:46.435Z,17.36
2018-06-04T20:53:14.241Z,17.31
2018-06-04T20:55:42.089Z,17.28
2018-06-04T20:58:10.029Z,17.30
2018-06-04T21:00:37.824Z,17.20
2018-06-04T21:03:05.816Z,17.17
2018-06-04T21:05:33.763Z,17.10
2018-06-04T21:08:01.603Z,17.13
2018-06-04T21:10:29.553Z,17.07
2018-06-04T21:12:57.382Z,17.10
2018-06-04T21:15:25.346Z,17.08
2018-06-04T21:17:53.194Z,17.02
2018-06-04T21:20:20.994Z,17.05
2018-06-04T21:22:48.848Z,17.12
2018-06-04T21:25:16.707Z,16.97
2018-06-04T21:27:44.640Z,16.89
2018-06-04T21:30:12.486Z,16.79
2018-06-04T21:32:40.390Z,16.94
2018-06-04T21:35:08.196Z,16.74
2018-06-04T21:37:35.994Z,16.68
2018-06-04T21:40:04.103Z,16.63
2018-06-04T21:42:31.920Z,16.65
2018-06-04T21:44:59.746Z,16.45
2018-06-04T21:47:27.765Z,16.22
2018-06-04T21:49:55.596Z,16.30
2018-06-04T21:52:23.428Z,16.28
2018-06-04T21:54:51.364Z,16.17
2018-06-04T21:57:19.178Z,16.20
2018-06-04T21:59:46.991Z,16.15
2018-06-04T22:02:14.844Z,16.17
2018-06-04T22:04:42.776Z,15.96
2018-06-04T22:07:10.613Z,15.87
2018-06-04T22:09:38.493Z,16.01
2018-06-04T22:12:06.333Z,15.96
2018-06-04T22:14:34.281Z,15.82
2018-06-04T22:17:02.572Z,15.94
2018-06-04T22:19:30.386Z,15.93
2018-06-04T22:21:58.193Z,15.85
2018-06-04T22:24:26.175Z,15.73
2018-06-04T22:26:53.971Z,15.63
2018-06-04T22:29:21.767Z,15.29
2018-06-04T22:31:49.597Z,15.11
2018-06-04T22:34:17.412Z,15.11
2018-06-04T22:36:45.207Z,15.12
2018-06-04T22:39:14.890Z,15.17
2018-06-04T22:41:42.705Z,15.30
2018-06-04T22:44:10.541Z,15.38
2018-06-04T22:46:38.405Z,15.38
2018-06-04T22:49:08.919Z,15.10
2018-06-04T22:51:36.884Z,15.00
2018-06-04T22:54:04.766Z,14.78
2018-06-04T22:56:32.574Z,14.51
2018-06-04T22:59:00.509Z,14.58
2018-06-04T23:01:28.859Z,14.10
2018-06-04T23:03:56.796Z,14.17
2018-06-04T23:06:24.604Z,13.95
2018-06-04T23:08:52.429Z,14.00
2018-06-04T23:11:20.230Z,13.89
2018-06-04T23:13:48.027Z,13.86
2018-06-04T23:16:15.858Z,14.12
2018-06-04T23:18:43.660Z,14.35
2018-06-04T23:21:11.461Z,14.45
2018-06-04T23:23:39.363Z,14.45
2018-06-04T23:26:07.181Z,14.58
2018-06-04T23:28:34.988Z,14.59
2018-06-04T23:31:02.827Z,14.53
2018-06-04T23:33:30.960Z,14.48
2018-06-04T23:35:58.775Z,14.60
2018-06-04T23:38:26.616Z,14.49
2018-06-04T23:40:54.439Z,14.52
2018-06-04T23:43:22.244Z,14.60
2018-06-04T23:45:50.338Z,14.45
2018-06-04T23:48:18.154Z,14.38
2018-06-04T23:50:46.084Z,14.32
2018-06-04T23:53:13.941Z,13.97
2018-06-04T23:55:41.742Z,14.09
2018-06-04T23:58:09.566Z,13.80
